Time;durP1;ratioP1;P1;durP2;ratioP2;P2;SDS_P1;SDS_P2;PMS_P1;PMS_P2;Temp;Humidity;BMP_temperature;BMP_pressure;BME280_temperature;BME280_humidity;BME280_pressure;Samples;Min_cycle;Max_cycle;Signal;HPM_P1;HPM_P2
2022/03/31 00:02:03;;;;;;;11.77;6.10;;;;;;;0.19;100.00;100125.72;5044693;28;20025;-73
2022/03/31 00:04:29;;;;;;;16.40;5.70;;;;;;;0.04;100.00;100118.09;5027099;28;20032;-73
2022/03/31 00:06:54;;;;;;;8.85;5.38;;;;;;;0.01;100.00;100129.66;5044986;28;20059;-73
2022/03/31 00:09:20;;;;;;;12.80;5.75;;;;;;;-0.05;100.00;100130.09;5044546;28;20031;-72
2022/03/31 00:11:45;;;;;;;12.93;5.53;;;;;;;-0.12;100.00;100129.69;5045112;28;20494;-72
2022/03/31 00:14:11;;;;;;;12.05;6.40;;;;;;;-0.12;100.00;100128.84;5044816;28;20059;-72
2022/03/31 00:16:36;;;;;;;10.93;5.90;;;;;;;-0.11;100.00;100128.75;5010528;28;20060;-72
2022/03/31 00:19:01;;;;;;;11.23;6.00;;;;;;;-0.04;100.00;100137.03;5044747;28;20685;-72
2022/03/31 00:21:27;;;;;;;11.97;5.13;;;;;;;-0.04;100.00;100147.53;5026754;28;21015;-72
2022/03/31 00:23:52;;;;;;;12.40;5.93;;;;;;;-0.09;100.00;100145.22;5044758;28;20078;-72
2022/03/31 00:26:17;;;;;;;10.70;6.03;;;;;;;-0.03;100.00;100142.16;5045197;28;20158;-72
2022/03/31 00:28:43;;;;;;;10.47;4.90;;;;;;;-0.10;100.00;100142.69;5044505;28;20037;-71
2022/03/31 00:31:08;;;;;;;9.98;4.90;;;;;;;0.01;100.00;100139.31;5026951;28;20291;-71
2022/03/31 00:33:34;;;;;;;8.32;4.50;;;;;;;-0.04;100.00;100150.97;5026745;28;20070;-72
2022/03/31 00:35:59;;;;;;;9.97;5.43;;;;;;;-0.09;100.00;100141.78;5044455;28;20028;-72
2022/03/31 00:38:24;;;;;;;12.07;5.43;;;;;;;-0.12;100.00;100142.78;5044729;28;20141;-71
2022/03/31 00:40:51;;;;;;;13.17;4.87;;;;;;;-0.15;100.00;100140.41;5044559;28;20275;-72
2022/03/31 00:43:16;;;;;;;12.05;5.05;;;;;;;-0.06;100.00;100137.13;5026802;28;20033;-71
2022/03/31 00:45:48;;;;;;;12.70;5.32;;;;;;;-0.07;100.00;100137.22;5044382;28;20485;-71
2022/03/31 00:48:18;;;;;;;11.23;5.13;;;;;;;-0.15;100.00;100137.78;5045117;28;20057;-71
2022/03/31 00:50:44;;;;;;;10.60;5.13;;;;;;;-0.10;100.00;100140.91;5026234;28;20445;-72
2022/03/31 00:53:09;;;;;;;11.90;5.32;;;;;;;-0.20;100.00;100142.50;5044540;28;20036;-71
2022/03/31 00:55:35;;;;;;;14.27;5.90;;;;;;;-0.33;100.00;100134.69;5044365;28;20029;-71
2022/03/31 00:58:01;;;;;;;18.00;6.43;;;;;;;-0.25;100.00;100142.00;5026526;28;20329;-71
2022/03/31 01:00:27;;;;;;;8.07;5.07;;;;;;;-0.29;100.00;100137.91;5043601;28;20377;-71
2022/03/31 01:02:52;;;;;;;17.73;6.10;;;;;;;-0.38;100.00;100130.69;5045250;28;20063;-71
2022/03/31 01:05:18;;;;;;;9.68;5.55;;;;;;;-0.40;100.00;100132.56;5048328;28;20424;-71
2022/03/31 01:07:43;;;;;;;10.13;5.72;;;;;;;-0.38;100.00;100136.75;5048203;28;20522;-72
2022/03/31 01:10:10;;;;;;;12.82;5.50;;;;;;;-0.37;100.00;100145.50;5048250;28;20163;-71
2022/03/31 01:12:36;;;;;;;13.02;5.07;;;;;;;-0.32;100.00;100138.97;5048070;28;20037;-71
2022/03/31 01:15:11;;;;;;;12.70;6.50;;;;;;;-0.25;100.00;100140.22;5047916;28;20025;-71
2022/03/31 01:17:38;;;;;;;11.85;5.18;;;;;;;-0.36;100.00;100136.66;5044673;28;20036;-72
2022/03/31 01:20:06;;;;;;;11.43;4.55;;;;;;;-0.43;100.00;100137.09;5029729;28;20021;-71
2022/03/31 01:22:32;;;;;;;13.82;4.88;;;;;;;-0.38;100.00;100138.56;5043863;28;20029;-71
2022/03/31 01:24:59;;;;;;;8.52;5.28;;;;;;;-0.35;100.00;100144.44;5047913;28;20477;-72
2022/03/31 01:27:25;;;;;;;9.43;5.22;;;;;;;-0.27;100.00;100136.03;5047657;28;20029;-72
2022/03/31 01:29:52;;;;;;;11.60;5.90;;;;;;;-0.28;100.00;100129.09;5047336;28;20525;-72
2022/03/31 01:32:18;;;;;;;10.60;4.68;;;;;;;-0.33;100.00;100128.56;5047592;28;20079;-72
2022/03/31 01:34:43;;;;;;;9.38;4.70;;;;;;;-0.20;100.00;100131.19;5043567;28;20037;-72
2022/03/31 01:37:09;;;;;;;7.55;4.35;;;;;;;-0.39;100.00;100123.78;5029747;28;20112;-71
2022/03/31 01:39:35;;;;;;;8.55;4.13;;;;;;;-0.36;100.00;100126.19;5026802;28;20051;-71
2022/03/31 01:42:00;;;;;;;8.27;4.20;;;;;;;-0.33;100.00;100118.94;5037769;28;20033;-72
2022/03/31 01:44:26;;;;;;;11.05;3.67;;;;;;;-0.19;100.00;100117.94;5047315;28;20021;-72
2022/03/31 01:46:51;;;;;;;9.47;5.40;;;;;;;-0.11;100.00;100114.78;5047569;28;20037;-72
2022/03/31 01:49:16;;;;;;;7.40;3.80;;;;;;;-0.06;100.00;100110.88;5046902;28;20259;-72
2022/03/31 01:51:42;;;;;;;10.00;4.20;;;;;;;-0.10;100.00;100109.41;5012872;28;20029;-72
2022/03/31 01:54:07;;;;;;;7.20;3.23;;;;;;;-0.02;100.00;100107.09;5029153;28;20358;-72
2022/03/31 01:56:34;;;;;;;8.18;3.50;;;;;;;-0.09;100.00;100091.91;5029579;28;20048;-72
2022/03/31 01:58:59;;;;;;;5.63;3.63;;;;;;;0.01;100.00;100097.31;5028775;28;20028;-72
2022/03/31 02:01:24;;;;;;;6.87;4.13;;;;;;;0.03;100.00;100082.31;5046554;28;20033;-72
2022/03/31 02:03:50;;;;;;;8.87;3.10;;;;;;;0.01;100.00;100082.41;5046838;28;20296;-73
2022/03/31 02:06:15;;;;;;;6.20;3.57;;;;;;;0.07;100.00;100074.09;5047023;28;20025;-72
2022/03/31 02:08:40;;;;;;;7.17;3.63;;;;;;;0.10;100.00;100071.25;5028720;28;20021;-72
2022/03/31 02:11:07;;;;;;;4.40;3.13;;;;;;;0.09;100.00;100068.72;5012682;28;20083;-73
2022/03/31 02:13:34;;;;;;;4.05;3.10;;;;;;;0.13;100.00;100060.50;5043406;28;20663;-73
2022/03/31 02:15:59;;;;;;;7.20;2.88;;;;;;;0.11;100.00;100058.94;5028643;28;20025;-72
2022/03/31 02:18:25;;;;;;;5.35;2.63;;;;;;;0.16;100.00;100065.56;5042828;28;20025;-73
2022/03/31 02:20:51;;;;;;;8.07;3.10;;;;;;;0.14;100.00;100056.09;5028567;28;20090;-73
2022/03/31 02:23:16;;;;;;;3.95;2.55;;;;;;;0.14;100.00;100056.97;5046814;28;20017;-73
2022/03/31 02:25:43;;;;;;;5.40;3.08;;;;;;;0.14;100.00;100054.34;5046250;28;20047;-73
2022/03/31 02:28:09;;;;;;;4.43;2.72;;;;;;;0.22;100.00;100050.31;5046787;28;20104;-73
2022/03/31 02:30:34;;;;;;;8.77;3.03;;;;;;;0.26;100.00;100044.72;5028510;28;20425;-73
2022/03/31 02:33:00;;;;;;;5.50;2.78;;;;;;;0.22;100.00;100037.19;5046604;28;20032;-72
2022/03/31 02:35:26;;;;;;;4.88;3.00;;;;;;;0.25;100.00;100032.53;5046086;28;20098;-72
2022/03/31 02:37:51;;;;;;;;;;;;;;;0.32;100.00;100023.22;5046743;28;20394;-72
2022/03/31 02:40:17;;;;;;;10.55;3.15;;;;;;;0.36;100.00;100021.22;5028245;28;19986;-72
2022/03/31 02:42:42;;;;;;;6.18;3.17;;;;;;;0.21;100.00;100010.06;5028475;28;20032;-72
2022/03/31 02:45:08;;;;;;;6.60;3.13;;;;;;;0.28;100.00;100005.19;5046762;28;20111;-72
2022/03/31 02:47:34;;;;;;;6.18;2.92;;;;;;;0.29;100.00;100002.47;5046360;28;20029;-72
2022/03/31 02:50:00;;;;;;;6.38;2.17;;;;;;;0.31;100.00;100005.00;5028155;28;20033;-72
2022/03/31 02:55:24;;;;;;;7.28;2.97;;;;;;;0.30;100.00;100000.66;5046307;28;20025;-72
2022/03/31 02:55:30;;;;;;;;;;;;;;;0.36;100.00;100001.06;5046616;28;20032;-72
2022/03/31 02:58:01;;;;;;;6.05;2.70;;;;;;;0.43;100.00;100008.47;5045944;28;20397;-72
2022/03/31 03:00:28;;;;;;;7.22;2.45;;;;;;;0.32;100.00;99989.09;5027478;28;20041;-72
2022/03/31 03:02:53;;;;;;;8.50;2.80;;;;;;;0.32;100.00;99985.66;5027863;28;20055;-72
2022/03/31 03:05:19;;;;;;;6.63;2.92;;;;;;;0.42;100.00;99986.59;5046096;28;20033;-72
2022/03/31 03:07:45;;;;;;;4.68;2.63;;;;;;;0.40;100.00;99984.13;5046092;28;20029;-72
2022/03/31 03:10:10;;;;;;;9.13;2.77;;;;;;;0.39;100.00;99977.19;5045596;28;20021;-72
2022/03/31 03:12:36;;;;;;;4.43;2.58;;;;;;;0.45;100.00;99982.94;5027947;28;20291;-72
2022/03/31 03:15:03;;;;;;;4.40;2.40;;;;;;;0.44;100.00;99978.63;5045648;28;20036;-72
2022/03/31 03:17:29;;;;;;;4.72;2.47;;;;;;;0.44;100.00;99983.88;5045630;28;20094;-72
2022/03/31 03:19:54;;;;;;;9.18;2.95;;;;;;;0.30;100.00;99972.63;5027623;28;20041;-72
2022/03/31 03:22:20;;;;;;;7.57;3.22;;;;;;;0.23;100.00;99963.53;5045835;28;20025;-72
2022/03/31 03:24:45;;;;;;;5.73;2.97;;;;;;;0.23;100.00;99968.78;5045300;28;20029;-72
2022/03/31 03:27:10;;;;;;;4.47;2.50;;;;;;;0.22;100.00;99964.50;5045324;28;20386;-72
2022/03/31 03:29:36;;;;;;;4.67;3.00;;;;;;;0.20;100.00;99980.34;5044817;28;20656;-72
2022/03/31 03:32:02;;;;;;;7.80;3.15;;;;;;;0.06;100.00;99982.34;5045873;28;20029;-72
2022/03/31 03:34:27;;;;;;;4.85;2.47;;;;;;;0.14;100.00;100003.59;5045407;28;20033;-72
2022/03/31 03:36:52;;;;;;;7.17;3.07;;;;;;;0.12;100.00;100005.53;5027782;28;20052;-72
2022/03/31 03:39:18;;;;;;;3.85;2.20;;;;;;;0.10;100.00;100007.41;5027271;28;20287;-72
2022/03/31 03:41:43;;;;;;;8.48;3.28;;;;;;;0.15;100.00;100026.28;5045146;28;20037;-72
2022/03/31 03:44:09;;;;;;;4.67;2.77;;;;;;;0.04;100.00;100013.94;5045379;28;20458;-72
2022/03/31 03:46:34;;;;;;;4.10;2.20;;;;;;;0.05;100.00;100015.63;5045114;28;20086;-72
2022/03/31 03:49:00;;;;;;;5.78;2.60;;;;;;;0.01;100.00;100011.56;5045070;28;20687;-72
2022/03/31 03:51:25;;;;;;;3.15;2.13;;;;;;;0.08;100.00;100025.06;5027218;28;20021;-72
2022/03/31 03:53:52;;;;;;;6.35;3.13;;;;;;;-0.02;100.00;100020.50;5027397;28;20028;-72
2022/03/31 03:56:17;;;;;;;;;;;;;;;-0.05;100.00;100015.47;5027655;28;20092;-72
2022/03/31 03:58:43;;;;;;;5.38;3.08;;;;;;;-0.01;100.00;100002.94;5026631;28;20027;-72
2022/03/31 04:01:08;;;;;;;6.50;3.17;;;;;;;0.02;100.00;100007.97;5040499;28;20024;-72
2022/03/31 04:03:35;;;;;;;10.13;4.22;;;;;;;-0.04;100.00;100017.13;5027040;28;20044;-72
2022/03/31 04:06:00;;;;;;;4.97;3.05;;;;;;;0.01;100.00;100000.22;5044886;28;20016;-73
2022/03/31 04:08:26;;;;;;;4.90;2.75;;;;;;;0.01;100.00;100003.69;5045156;28;20035;-73
2022/03/31 04:10:52;;;;;;;5.47;3.38;;;;;;;-0.05;100.00;99999.72;5044301;28;20927;-72
2022/03/31 04:13:17;;;;;;;;;;;;;;;-0.02;100.00;99999.50;5027546;28;20068;-72
2022/03/31 04:15:43;;;;;;;3.78;2.40;;;;;;;-0.06;100.00;99991.97;5044571;28;20393;-72
2022/03/31 04:18:09;;;;;;;5.03;2.97;;;;;;;-0.05;100.00;99994.47;5044785;28;20056;-72
2022/03/31 04:20:35;;;;;;;9.85;2.95;;;;;;;0.09;100.00;100006.56;5040457;28;20752;-72
2022/03/31 04:23:01;;;;;;;6.05;2.47;;;;;;;0.06;100.00;99995.47;5044568;28;20037;-72
2022/03/31 04:25:26;;;;;;;4.53;2.58;;;;;;;0.11;100.00;99998.59;5026943;28;20021;-72
2022/03/31 04:27:52;;;;;;;8.23;3.03;;;;;;;0.06;100.00;99996.28;5026955;28;20044;-72
2022/03/31 04:30:20;;;;;;;7.27;2.47;;;;;;;0.13;100.00;99989.63;5044763;28;20025;-72
2022/03/31 04:32:47;;;;;;;5.30;2.50;;;;;;;0.16;100.00;99986.81;5044264;28;20279;-72
2022/03/31 04:35:12;;;;;;;;;;;;;;;0.24;100.00;99991.47;5026901;28;20473;-73
2022/03/31 04:37:38;;;;;;;3.75;2.60;;;;;;;0.13;100.00;99971.25;5029289;28;19943;-72
2022/03/31 04:40:05;;;;;;;6.43;2.15;;;;;;;0.19;100.00;99977.88;5048424;28;20051;-72
2022/03/31 04:42:30;;;;;;;5.53;2.88;;;;;;;0.25;100.00;99964.25;5030562;28;20060;-72
2022/03/31 04:44:55;;;;;;;7.33;2.73;;;;;;;0.26;100.00;99955.44;5027842;28;20478;-72
2022/03/31 04:47:21;;;;;;;4.05;2.40;;;;;;;0.26;100.00;99952.81;5044963;28;20640;-73
2022/03/31 04:49:46;;;;;;;4.63;2.58;;;;;;;0.30;100.00;99958.66;5010911;28;20476;-72
2022/03/31 04:52:12;;;;;;;7.07;3.10;;;;;;;0.27;99.97;99951.03;5048122;28;20565;-73
2022/03/31 04:54:43;;;;;;;3.20;2.03;;;;;;;0.36;98.94;99960.84;5047953;28;20033;-73
2022/03/31 04:57:15;;;;;;;4.07;2.13;;;;;;;0.32;98.90;99954.97;5030015;28;20279;-73
2022/03/31 04:59:42;;;;;;;6.45;2.70;;;;;;;0.34;98.46;99960.94;5046670;28;20082;-73
2022/03/31 05:02:07;;;;;;;4.78;2.72;;;;;;;0.28;97.11;99943.03;5047534;28;20028;-72
2022/03/31 05:04:33;;;;;;;8.75;2.40;;;;;;;0.43;96.67;99955.97;5030121;28;20037;-72
2022/03/31 05:06:58;;;;;;;4.50;1.90;;;;;;;0.36;95.06;99934.56;5048076;28;20128;-72
2022/03/31 05:09:24;;;;;;;5.50;2.45;;;;;;;0.44;95.07;99958.44;5046643;28;20358;-73
2022/03/31 05:11:49;;;;;;;3.27;1.93;;;;;;;0.45;94.41;99948.81;5048351;28;20029;-73
2022/03/31 05:14:14;;;;;;;3.93;2.30;;;;;;;0.36;92.27;99929.31;5013887;28;20052;-73
2022/03/31 05:16:40;;;;;;;3.38;1.65;;;;;;;0.30;90.13;99904.34;5048422;28;20489;-72
2022/03/31 05:19:05;;;;;;;5.78;2.10;;;;;;;0.34;89.87;99910.22;5047609;28;20025;-72
2022/03/31 05:21:31;;;;;;;6.13;2.30;;;;;;;0.25;88.66;99884.66;5048102;28;20474;-72
2022/03/31 05:23:56;;;;;;;3.67;1.90;;;;;;;0.35;88.34;99891.72;5047718;28;20366;-72
2022/03/31 05:26:21;;;;;;;3.37;1.80;;;;;;;0.36;87.76;99890.75;5048090;28;20036;-72
2022/03/31 05:28:47;;;;;;;5.27;1.63;;;;;;;0.37;86.96;99881.91;5047858;28;20475;-72
2022/03/31 05:31:12;;;;;;;2.30;1.37;;;;;;;0.22;85.13;99850.78;5013021;28;20016;-72
2022/03/31 05:33:37;;;;;;;2.77;1.50;;;;;;;0.29;84.63;99855.44;5047616;28;20759;-72
2022/03/31 05:36:03;;;;;;;3.53;1.90;;;;;;;0.25;83.58;99840.88;5047397;28;20071;-72
2022/03/31 05:38:28;;;;;;;3.25;1.55;;;;;;;0.35;83.37;99852.34;5047388;28;20350;-73
2022/03/31 05:40:54;;;;;;;3.80;1.40;;;;;;;0.30;82.64;99837.88;5046202;28;20145;-73
2022/03/31 05:43:21;;;;;;;4.78;2.10;;;;;;;0.39;82.41;99856.38;5012842;28;20052;-72
2022/03/31 05:45:47;;;;;;;5.03;1.52;;;;;;;0.28;80.40;99795.16;5047113;28;20024;-72
2022/03/31 05:48:12;;;;;;;3.38;1.58;;;;;;;0.35;80.16;99810.34;5047047;28;20752;-72
2022/03/31 05:50:38;;;;;;;3.75;1.60;;;;;;;0.34;79.64;99810.44;5043828;28;20055;-72
2022/03/31 05:53:03;;;;;;;4.90;1.85;;;;;;;0.38;78.95;99802.19;5029776;28;20021;-72
2022/03/31 05:55:29;;;;;;;5.40;1.50;;;;;;;0.40;79.82;99813.44;5046128;28;20701;-72
2022/03/31 05:57:54;;;;;;;5.75;2.00;;;;;;;0.36;79.55;99822.50;5030530;28;20283;-72
2022/03/31 06:00:21;;;;;;;2.93;1.27;;;;;;;0.36;79.36;99842.66;5047014;28;20025;-72
2022/03/31 06:02:49;;;;;;;3.70;1.52;;;;;;;0.30;79.41;99841.34;5047408;28;20129;-72
2022/03/31 06:05:15;;;;;;;3.45;1.80;;;;;;;0.40;79.37;99860.69;5030001;28;20397;-72
2022/03/31 06:07:41;;;;;;;4.20;1.58;;;;;;;0.34;78.66;99834.91;5029575;28;20099;-72
2022/03/31 06:10:07;;;;;;;3.42;1.10;;;;;;;0.42;78.61;99860.56;5047299;28;20109;-72
2022/03/31 06:12:34;;;;;;;2.90;1.35;;;;;;;0.33;78.90;99856.03;5047010;28;20131;-72
2022/03/31 06:15:03;;;;;;;4.13;1.65;;;;;;;0.40;78.56;99865.94;5029436;28;20033;-72
2022/03/31 06:17:28;;;;;;;8.73;1.90;;;;;;;0.39;78.52;99859.00;5047307;28;20115;-72
2022/03/31 06:19:54;;;;;;;6.30;1.53;;;;;;;0.29;77.41;99820.47;5012750;28;20617;-72
2022/03/31 06:22:19;;;;;;;3.35;1.60;;;;;;;0.38;77.90;99854.72;5047100;28;20837;-72
2022/03/31 06:24:45;;;;;;;4.25;2.15;;;;;;;0.43;78.99;99895.56;5029229;28;20041;-72
2022/03/31 06:27:11;;;;;;;2.47;1.47;;;;;;;0.34;78.43;99866.41;5047308;28;20056;-72
2022/03/31 06:29:37;;;;;;;2.88;1.27;;;;;;;0.33;77.61;99856.88;5029062;28;20344;-72
2022/03/31 06:32:03;;;;;;;5.03;1.63;;;;;;;0.41;76.90;99838.72;5047235;28;20033;-72
2022/03/31 06:34:29;;;;;;;3.90;1.58;;;;;;;0.47;76.61;99833.94;5046905;28;20565;-72
2022/03/31 06:36:55;;;;;;;4.93;2.58;;;;;;;0.55;76.96;99877.03;5047041;28;20040;-72
2022/03/31 06:39:21;;;;;;;5.85;1.88;;;;;;;0.65;77.31;99892.09;5046646;28;20614;-73
2022/03/31 06:41:46;;;;;;;3.53;1.90;;;;;;;0.56;76.27;99846.34;5046773;28;20036;-72
2022/03/31 06:44:16;;;;;;;2.97;1.80;;;;;;;0.49;76.73;99847.78;5028832;28;20025;-72
2022/03/31 06:46:42;;;;;;;6.00;1.88;;;;;;;0.63;77.42;99916.69;5028532;28;20075;-72
2022/03/31 06:49:09;;;;;;;3.05;1.70;;;;;;;0.47;76.77;99868.94;5028301;28;20025;-72
2022/03/31 06:51:35;;;;;;;4.72;2.00;;;;;;;0.63;77.51;99931.59;5046021;28;20124;-72
2022/03/31 06:54:02;;;;;;;2.85;1.65;;;;;;;0.52;77.55;99908.81;5027783;28;20024;-72
2022/03/31 06:56:28;;;;;;;5.93;1.77;;;;;;;0.48;77.45;99899.47;5027973;28;20060;-72
2022/03/31 06:58:54;;;;;;;8.90;2.25;;;;;;;0.59;77.56;99927.56;5045697;28;20068;-72
2022/03/31 07:01:20;;;;;;;3.47;1.80;;;;;;;0.58;76.99;99908.31;5027493;28;20129;-72
2022/03/31 07:03:45;;;;;;;5.03;2.28;;;;;;;0.63;77.01;99921.94;5046488;28;20275;-72
2022/03/31 07:06:11;;;;;;;2.75;1.50;;;;;;;0.67;77.13;99925.16;5028723;28;20714;-72
2022/03/31 07:08:36;;;;;;;3.55;1.80;;;;;;;0.71;77.30;99934.50;5028284;28;20037;-72
2022/03/31 07:11:03;;;;;;;5.50;1.90;;;;;;;0.59;76.60;99898.66;5046322;28;20693;-72
2022/03/31 07:13:29;;;;;;;6.22;2.40;;;;;;;0.92;77.76;99978.44;5028086;28;20275;-72
2022/03/31 07:15:54;;;;;;;;;;;;;;;0.82;76.77;99918.72;5028549;28;20089;-72
2022/03/31 07:18:20;;;;;;;3.17;1.83;;;;;;;1.11;76.77;99952.38;5046126;28;19908;-72
2022/03/31 07:20:45;;;;;;;4.20;1.83;;;;;;;0.89;75.57;99865.66;5027893;28;20131;-72
2022/03/31 07:23:10;;;;;;;7.27;1.63;;;;;;;0.93;75.34;99874.97;5046110;28;20354;-72
2022/03/31 07:25:36;;;;;;;2.20;1.60;;;;;;;0.89;75.04;99865.66;5045976;28;20067;-72
2022/03/31 07:28:02;;;;;;;3.15;1.65;;;;;;;1.11;75.38;99915.59;5020146;28;20275;-72
2022/03/31 07:30:27;;;;;;;2.47;1.67;;;;;;;1.06;74.67;99886.19;5045377;28;20612;-73
2022/03/31 07:32:55;;;;;;;7.53;2.25;;;;;;;0.98;74.37;99854.41;5045114;28;20037;-73
2022/03/31 07:35:24;;;;;;;5.13;2.80;;;;;;;0.95;73.76;99826.59;5029351;28;20539;-73
2022/03/31 07:37:51;;;;;;;2.17;1.38;;;;;;;1.26;73.88;99890.69;5027724;28;20551;-73
2022/03/31 07:40:18;;;;;;;4.15;1.70;;;;;;;1.17;73.65;99859.88;5027396;28;20068;-73
2022/03/31 07:42:44;;;;;;;4.70;1.60;;;;;;;1.31;73.64;99868.44;5027209;28;20091;-73
2022/03/31 07:45:11;;;;;;;;;;;;;;;1.26;72.93;99830.22;5045563;28;20528;-74
2022/03/31 07:47:38;;;;;;;4.30;1.50;;;;;;;1.03;72.35;99792.66;5045176;28;19924;-75
2022/03/31 07:50:03;;;;;;;;;;;;;;;1.04;72.37;99796.09;5028324;28;20025;-75
2022/03/31 07:52:28;;;;;;;8.80;1.60;;;;;;;1.26;72.64;99874.94;5027944;28;19919;-76
2022/03/31 07:54:54;;;;;;;3.07;1.67;;;;;;;1.37;73.18;99878.47;5045480;28;20474;-75
2022/03/31 07:57:19;;;;;;;4.73;2.27;;;;;;;1.19;72.50;99843.97;5045650;28;20040;-75
2022/03/31 07:59:44;;;;;;;4.03;1.57;;;;;;;1.50;73.18;99900.19;5027509;28;20080;-76
2022/03/31 08:02:10;;;;;;;4.80;2.00;;;;;;;1.50;72.22;99857.25;5028006;28;20032;-75
2022/03/31 08:04:35;;;;;;;2.75;1.90;;;;;;;1.40;71.09;99800.13;5027806;28;20075;-75
2022/03/31 08:07:01;;;;;;;4.30;2.00;;;;;;;1.48;71.36;99839.81;5045739;28;20104;-75
2022/03/31 08:09:26;;;;;;;4.78;2.28;;;;;;;1.53;71.43;99852.56;5027570;28;20021;-75
2022/03/31 08:11:52;;;;;;;3.40;1.87;;;;;;;1.59;70.92;99812.63;5025218;28;20052;-75
2022/03/31 08:14:21;;;;;;;5.50;1.90;;;;;;;1.59;71.17;99844.19;5045611;28;20290;-75
2022/03/31 08:16:48;;;;;;;2.78;1.50;;;;;;;1.65;71.08;99854.19;5045271;28;20397;-75
2022/03/31 08:19:15;;;;;;;4.57;1.75;;;;;;;1.69;70.71;99834.56;5027460;28;20087;-76
2022/03/31 08:21:42;;;;;;;7.43;1.83;;;;;;;1.83;70.53;99854.47;5027426;28;20482;-75
2022/03/31 08:24:13;;;;;;;3.15;2.03;;;;;;;1.94;69.89;99839.56;5045375;28;20486;-75
2022/03/31 08:26:39;;;;;;;4.07;2.15;;;;;;;1.71;69.49;99783.59;5045193;28;20401;-75
2022/03/31 08:29:05;;;;;;;;;;;;;;;1.87;69.21;99792.72;5027892;28;20009;-75
2022/03/31 08:31:30;;;;;;;5.35;2.38;;;;;;;1.93;69.20;99807.13;5045473;28;20342;-75
2022/03/31 08:33:55;;;;;;;4.28;1.63;;;;;;;1.95;68.76;99794.69;5027509;28;20037;-75
2022/03/31 08:36:22;;;;;;;3.40;2.10;;;;;;;2.02;68.40;99805.53;5027371;28;20095;-75
2022/03/31 08:38:48;;;;;;;4.15;2.05;;;;;;;2.08;67.69;99769.00;5045003;28;20486;-75
2022/03/31 08:41:14;;;;;;;5.95;2.13;;;;;;;1.95;67.42;99738.56;5011125;28;20041;-75
2022/03/31 08:43:41;;;;;;;3.75;1.58;;;;;;;2.08;66.77;99711.06;5019324;28;20032;-75
2022/03/31 08:46:09;;;;;;;8.30;2.47;;;;;;;1.97;66.13;99692.72;5010886;28;20041;-74
2022/03/31 08:48:35;;;;;;;5.13;2.25;;;;;;;2.22;66.44;99761.69;5027260;28;20505;-75
2022/03/31 08:51:01;;;;;;;3.65;1.48;;;;;;;2.24;64.28;99652.59;5027327;28;20041;-75
2022/03/31 08:53:26;;;;;;;6.47;1.67;;;;;;;2.46;62.98;99617.28;5045253;28;20533;-75
2022/03/31 08:55:51;;;;;;;2.03;1.50;;;;;;;2.33;63.02;99612.25;5045001;28;20036;-75
2022/03/31 08:58:17;;;;;;;2.83;1.70;;;;;;;2.53;62.84;99663.19;5045213;28;20279;-75
2022/03/31 09:00:43;;;;;;;3.03;1.37;;;;;;;2.91;61.92;99665.97;5040702;28;20521;-75
2022/03/31 09:03:09;;;;;;;6.90;1.80;;;;;;;2.77;60.04;99540.69;5027430;28;20370;-76
2022/03/31 09:05:46;;;;;;;6.10;1.70;;;;;;;2.85;59.88;99575.06;5027014;28;20048;-76
2022/03/31 09:08:16;;;;;;;2.65;1.38;;;;;;;3.16;59.84;99612.63;5020677;28;20036;-76
2022/03/31 09:10:42;;;;;;;4.22;1.85;;;;;;;2.65;57.92;99434.63;5026912;28;20490;-75
2022/03/31 09:13:25;;;;;;;1.45;0.90;;;;;;;3.01;56.85;99468.19;5027369;28;20036;-75
2022/03/31 09:15:53;;;;;;;2.60;0.88;;;;;;;3.24;56.36;99460.75;5010328;28;20106;-76
2022/03/31 09:18:20;;;;;;;2.17;1.17;;;;;;;3.34;56.18;99488.72;5026943;28;20028;-75
2022/03/31 09:20:47;;;;;;;2.78;1.13;;;;;;;3.44;55.56;99424.50;5018107;28;20044;-76
2022/03/31 09:23:20;;;;;;;3.40;1.00;;;;;;;3.30;54.97;99407.38;5044685;28;20398;-75
2022/03/31 09:25:46;;;;;;;4.05;1.10;;;;;;;3.96;54.72;99494.19;5047317;28;20501;-75
2022/03/31 09:28:18;;;;;;;3.45;1.02;;;;;;;3.44;53.91;99340.06;5030342;28;20021;-74
2022/03/31 09:30:52;;;;;;;3.80;1.30;;;;;;;4.17;54.26;99533.50;5029739;28;20079;-75
2022/03/31 09:33:32;;;;;;;5.03;1.85;;;;;;;3.77;51.77;99236.44;5047818;28;20389;-75
2022/03/31 09:36:18;;;;;;;5.82;1.20;;;;;;;4.20;52.11;99377.31;5047207;28;20075;-75
2022/03/31 09:38:51;;;;;;;2.85;1.55;;;;;;;4.33;52.10;99406.00;5026989;28;20112;-75
2022/03/31 09:41:29;;;;;;;5.50;1.08;;;;;;;5.21;52.54;99612.13;5043964;28;20584;-75
2022/03/31 09:43:56;;;;;;;1.77;1.10;;;;;;;4.82;50.65;99371.88;5047821;28;20047;-75
2022/03/31 09:46:33;;;;;;;3.33;0.98;;;;;;;5.42;50.01;99392.06;5029964;28;20032;-76
2022/03/31 09:49:08;;;;;;;1.58;1.00;;;;;;;5.00;48.33;99221.00;5047060;28;20071;-75
2022/03/31 09:51:34;;;;;;;1.67;1.00;;;;;;;5.64;48.27;99353.56;5026095;28;20548;-75
2022/03/31 09:54:00;;;;;;;4.70;1.30;;;;;;;4.55;48.66;99229.34;5029405;28;20274;-75
2022/03/31 09:56:25;;;;;;;3.17;1.60;;;;;;;4.20;48.31;99099.94;5029835;28;20785;-76
2022/03/31 09:58:53;;;;;;;2.00;0.88;;;;;;;4.32;47.91;99083.78;5046927;28;20086;-75
2022/03/31 10:01:19;;;;;;;1.55;0.73;;;;;;;4.23;48.16;99112.81;5047342;28;20055;-75
2022/03/31 10:03:45;;;;;;;4.13;1.10;;;;;;;4.40;47.89;99157.78;5029112;28;20025;-75
2022/03/31 10:06:12;;;;;;;5.88;0.90;;;;;;;4.93;48.89;99373.41;5029624;28;20107;-75
2022/03/31 10:08:42;;;;;;;2.38;1.10;;;;;;;4.39;47.21;99112.03;5029238;28;20563;-75
2022/03/31 10:11:09;;;;;;;4.50;0.90;;;;;;;4.89;46.49;99171.06;5043751;28;20037;-76
2022/03/31 10:13:43;;;;;;;1.65;0.90;;;;;;;4.28;46.05;98990.00;5047264;28;20055;-75
2022/03/31 10:16:13;;;;;;;2.67;0.70;;;;;;;4.16;45.71;98982.38;5043602;28;20119;-75
2022/03/31 10:18:41;;;;;;;1.80;0.77;;;;;;;4.87;45.60;99138.69;5028947;28;20033;-75
2022/03/31 10:21:06;;;;;;;1.45;0.63;;;;;;;5.04;44.37;99010.72;5047084;28;20021;-74
2022/03/31 10:26:27;;;;;;;1.40;0.70;;;;;;;5.89;43.58;99166.31;5044822;28;20290;-75
2022/03/31 10:29:16;;;;;;;2.88;0.63;;;;;;;5.71;42.51;99043.88;5028701;28;20075;-76
2022/03/31 10:31:45;;;;;;;0.88;0.60;;;;;;;5.14;42.98;98954.16;5036047;28;20635;-75
2022/03/31 10:34:12;;;;;;;3.00;1.00;;;;;;;6.07;43.55;99192.59;5025044;28;20474;-76
2022/03/31 10:36:45;;;;;;;1.45;0.60;;;;;;;6.84;42.68;99230.84;5046042;28;20087;-76
2022/03/31 10:39:24;;;;;;;4.97;0.65;;;;;;;6.48;41.09;99020.06;5042639;28;20381;-76
2022/03/31 10:42:05;;;;;;;3.05;0.95;;;;;;;6.43;41.21;98936.78;5029336;28;20037;-76
2022/03/31 10:44:34;;;;;;;1.50;0.85;;;;;;;7.17;42.63;99282.69;5028508;28;20029;-75
2022/03/31 10:47:09;;;;;;;2.05;1.00;;;;;;;6.29;40.44;98801.41;5046219;28;20027;-76
2022/03/31 10:49:36;;;;;;;0.80;0.70;;;;;;;6.62;40.21;98869.97;5024978;28;20033;-76
2022/03/31 10:52:19;;;;;;;3.15;0.82;;;;;;;7.21;40.78;99070.00;5028700;28;20577;-76
2022/03/31 10:54:46;;;;;;;2.08;0.70;;;;;;;8.41;41.85;99400.28;5026325;28;20039;-76
2022/03/31 10:57:15;;;;;;;1.38;0.70;;;;;;;8.37;39.90;99141.00;5046334;28;20119;-76
2022/03/31 10:59:43;;;;;;;0.93;0.75;;;;;;;8.11;40.79;99168.09;5045913;28;20213;-76
2022/03/31 11:02:12;;;;;;;1.85;0.70;;;;;;;8.06;41.14;99174.97;5046228;28;20017;-76
2022/03/31 11:04:48;;;;;;;1.60;0.70;;;;;;;6.58;41.37;98874.03;5011858;28;20045;-76
2022/03/31 11:07:20;;;;;;;1.25;0.80;;;;;;;6.96;42.85;99174.53;5046013;28;20186;-76
2022/03/31 11:09:46;;;;;;;4.70;0.57;;;;;;;6.41;42.22;99015.66;5045544;28;20044;-76
2022/03/31 11:12:23;;;;;;;1.95;0.93;;;;;;;7.12;42.25;99210.75;5039398;23;20049;-81
2022/03/31 11:14:59;;;;;;;0.80;0.65;;;;;;;5.77;42.18;98873.72;4998041;28;20048;-84
2022/03/31 11:17:25;;;;;;;12.95;1.02;;;;;;;6.53;43.08;99125.59;5033499;28;20033;-87
2022/03/31 11:19:53;;;;;;;1.88;0.77;;;;;;;7.40;43.22;99335.81;5029146;28;20018;-85
2022/03/31 11:22:20;;;;;;;2.53;0.80;;;;;;;7.48;42.36;99262.41;5040494;28;20037;-82
2022/03/31 11:24:46;;;;;;;3.17;1.42;;;;;;;7.69;41.26;99205.94;5025451;28;20032;-83
2022/03/31 11:27:11;;;;;;;3.30;0.77;;;;;;;8.08;40.68;99216.31;5036829;28;20029;-87
2022/03/31 11:29:36;;;;;;;1.60;0.93;;;;;;;6.93;40.21;98953.84;4995501;28;20088;-86
2022/03/31 11:32:02;;;;;;;1.47;0.73;;;;;;;7.48;41.12;99183.56;5030227;28;20112;-85
2022/03/31 11:34:28;;;;;;;1.77;0.60;;;;;;;7.32;40.29;99040.34;5027866;28;20064;-86
2022/03/31 11:36:55;;;;;;;0.60;0.50;;;;;;;8.48;40.74;99309.13;5012316;28;20315;-87